Time;durP1;ratioP1;P1;durP2;ratioP2;P2;SDS_P1;SDS_P2;PMS_P1;PMS_P2;Temp;Humidity;BMP_temperature;BMP_pressure;BME280_temperature;BME280_humidity;BME280_pressure;Samples;Min_cycle;Max_cycle;Signal;HPM_P1;HPM_P2
2024/03/13 00:01:17;;;;;;;;;;;;;;;17.40;46.30;100085.84;4957239;29;1073;-42
2024/03/13 00:03:42;;;;;;;;;;;;;;;17.31;46.37;100090.13;4957657;29;1070;-45
2024/03/13 00:06:10;;;;;;;;;;;;;;;16.46;48.25;100089.19;4953699;29;2578;-40
2024/03/13 00:08:36;;;;;;;;;;;;;;;16.14;48.96;100082.06;4955026;29;1191;-40
2024/03/13 00:11:01;;;;;;;;;;;;;;;15.95;49.60;100088.81;4956782;29;1980;-41
2024/03/13 00:13:29;;;;;;;;;;;;;;;15.65;50.33;100079.72;4954655;29;1132;-42
2024/03/13 00:15:55;;;;;;;;;;;;;;;16.36;48.97;100081.16;4957582;29;1117;-42
2024/03/13 00:18:21;;;;;;;;;;;;;;;17.66;45.74;100083.53;4957347;29;931;-41
2024/03/13 00:20:46;;;;;;;;;;;;;;;16.82;47.36;100085.34;4956918;29;1089;-45
2024/03/13 00:23:12;;;;;;;;;;;;;;;16.26;49.05;100085.53;4943247;29;1256;-41
2024/03/13 00:25:37;;;;;;;;;;;;;;;15.96;49.43;100090.53;4949214;29;1109;-40
2024/03/13 00:28:03;;;;;;;;;;;;;;;15.73;49.87;100089.72;4952910;29;1041;-39
2024/03/13 00:30:29;;;;;;;;;;;;;;;15.98;49.91;100088.59;4948885;29;1907;-42
2024/03/13 00:32:55;;;;;;;;;;;;;;;17.41;46.17;100088.34;4957682;29;1122;-43
2024/03/13 00:35:21;;;;;;;;;;;;;;;17.22;46.48;100084.63;4955338;29;2404;-41
2024/03/13 00:37:46;;;;;;;;;;;;;;;16.45;48.36;100092.78;4950990;29;1089;-40
2024/03/13 00:40:13;;;;;;;;;;;;;;;16.06;48.98;100080.03;4948595;29;1038;-44
2024/03/13 00:42:39;;;;;;;;;;;;;;;15.84;49.46;100084.41;4957126;28;1093;-42
2024/03/13 00:45:04;;;;;;;;;;;;;;;15.65;49.99;100080.56;4960501;29;1131;-43
2024/03/13 00:47:30;;;;;;;;;;;;;;;16.33;48.99;100084.03;4945484;29;1134;-41
2024/03/13 00:49:55;;;;;;;;;;;;;;;17.59;45.76;100077.06;4951369;29;1977;-40
2024/03/13 00:52:22;;;;;;;;;;;;;;;16.92;47.14;100082.75;4947869;29;1125;-41
2024/03/13 00:54:47;;;;;;;;;;;;;;;16.35;48.58;100078.63;4959200;29;1304;-41
2024/03/13 00:57:13;;;;;;;;;;;;;;;16.00;49.36;100076.06;4959750;29;1065;-39
2024/03/13 00:59:39;;;;;;;;;;;;;;;15.76;49.91;100070.91;4957390;28;1050;-40
2024/03/13 01:02:07;;;;;;;;;;;;;;;15.67;50.14;100073.34;4953959;29;1038;-41
2024/03/13 01:04:33;;;;;;;;;;;;;;;17.20;46.70;100075.13;4952708;29;1205;-39
2024/03/13 01:06:58;;;;;;;;;;;;;;;17.42;45.97;100073.22;4960312;29;2571;-42
2024/03/13 01:09:24;;;;;;;;;;;;;;;16.55;48.13;100073.44;4960036;29;1902;-41
2024/03/13 01:11:52;;;;;;;;;;;;;;;16.06;49.26;100069.44;4960233;29;1006;-44
2024/03/13 01:14:20;;;;;;;;;;;;;;;15.83;49.62;100065.97;4959971;29;1042;-43
2024/03/13 01:16:48;;;;;;;;;;;;;;;16.30;48.77;100072.84;4960178;29;1169;-43
2024/03/13 01:19:13;;;;;;;;;;;;;;;17.68;45.61;100067.44;4960237;29;1038;-41
2024/03/13 01:21:39;;;;;;;;;;;;;;;16.86;47.08;100071.69;4960114;29;1188;-42
2024/03/13 01:24:04;;;;;;;;;;;;;;;16.33;48.30;100072.59;4959971;29;1061;-41
2024/03/13 01:26:34;;;;;;;;;;;;;;;16.03;49.07;100072.34;4946664;29;1137;-42
2024/03/13 01:29:00;;;;;;;;;;;;;;;15.72;49.48;100072.97;4960127;29;1903;-45
2024/03/13 01:31:26;;;;;;;;;;;;;;;16.46;48.64;100078.56;4959498;29;1104;-43
2024/03/13 01:33:52;;;;;;;;;;;;;;;17.60;45.74;100081.44;4959679;29;1197;-44
2024/03/13 01:37:55;;;;;;;;;;;;;;;16.62;47.82;100077.25;4953850;29;2521;-42
2024/03/13 01:39:03;;;;;;;;;;;;;;;16.16;48.77;100069.50;4955700;29;1090;-46
2024/03/13 01:55:13;;;;;;;;;;;;;;;15.93;49.19;100044.84;4930380;29;1228;-42
2024/03/13 02:03:10;;;;;;;;;;;;;;;17.42;45.98;100054.63;4959432;29;1114;-41
2024/03/13 02:05:36;;;;;;;;;;;;;;;17.10;46.57;100044.00;4946206;29;2468;-40
2024/03/13 02:08:03;;;;;;;;;;;;;;;16.32;48.62;100053.16;4959045;29;1041;-40
2024/03/13 02:10:28;;;;;;;;;;;;;;;16.04;49.04;100055.44;4929218;29;1903;-41
2024/03/13 02:13:20;;;;;;;;;;;;;;;15.79;49.42;100047.66;4958660;29;1136;-41
2024/03/13 02:15:46;;;;;;;;;;;;;;;16.83;47.72;100044.56;4946803;29;1349;-39
2024/03/13 02:18:30;;;;;;;;;;;;;;;17.62;45.51;100034.25;4945285;29;1241;-39
2024/03/13 02:20:58;;;;;;;;;;;;;;;16.58;48.11;100039.50;4959401;29;1120;-43
2024/03/13 02:23:24;;;;;;;;;;;;;;;16.16;49.02;100046.44;4958501;29;1052;-43
2024/03/13 02:25:53;;;;;;;;;;;;;;;15.87;49.31;100036.41;4956850;29;895;-40
2024/03/13 02:28:32;;;;;;;;;;;;;;;15.69;50.16;100046.69;4941920;29;1201;-44
2024/03/13 02:30:58;;;;;;;;;;;;;;;17.29;46.54;100042.41;4958386;29;1969;-41
2024/03/13 02:33:23;;;;;;;;;;;;;;;16.81;47.24;100035.88;4958579;29;1038;-40
2024/03/13 02:35:49;;;;;;;;;;;;;;;16.20;48.95;100033.78;4958862;29;2570;-41
2024/03/13 02:38:14;;;;;;;;;;;;;;;15.87;49.34;100038.22;4949549;29;926;-39
2024/03/13 02:40:40;;;;;;;;;;;;;;;15.73;49.60;100042.00;4945684;29;1121;-43
2024/03/13 02:43:05;;;;;;;;;;;;;;;16.26;49.12;100038.59;4958578;29;1102;-40
2024/03/13 02:45:32;;;;;;;;;;;;;;;17.61;45.78;100030.75;4956693;29;1027;-41
2024/03/13 02:47:57;;;;;;;;;;;;;;;16.81;47.29;100030.56;4947688;29;1054;-41
2024/03/13 02:50:23;;;;;;;;;;;;;;;16.24;48.53;100037.03;4945252;29;1980;-40
2024/03/13 02:52:49;;;;;;;;;;;;;;;15.90;49.15;100037.97;4958262;29;1085;-42
2024/03/13 02:55:14;;;;;;;;;;;;;;;15.70;49.97;100037.78;4957176;29;1186;-45
2024/03/13 02:57:40;;;;;;;;;;;;;;;16.13;49.18;100046.72;4950713;29;1255;-41
2024/03/13 03:00:06;;;;;;;;;;;;;;;17.49;45.91;100038.00;4951997;29;1090;-44
2024/03/13 03:02:38;;;;;;;;;;;;;;;17.12;46.58;100036.75;4953218;28;892;-43
2024/03/13 03:05:04;;;;;;;;;;;;;;;16.37;48.29;100039.50;4945165;28;1141;-40
2024/03/13 03:07:30;;;;;;;;;;;;;;;16.06;48.69;100039.41;4957903;29;2775;-40
2024/03/13 03:09:56;;;;;;;;;;;;;;;15.79;49.51;100029.09;4957805;29;1911;-39
2024/03/13 03:12:21;;;;;;;;;;;;;;;15.65;49.87;100026.69;4957691;29;1132;-43
2024/03/13 03:14:47;;;;;;;;;;;;;;;17.18;46.86;100023.91;4958448;28;1073;-42
2024/03/13 03:17:14;;;;;;;;;;;;;;;17.68;45.10;100019.56;4957943;29;1038;-41
2024/03/13 03:19:40;;;;;;;;;;;;;;;16.64;47.41;100020.41;4958088;29;1093;-40
2024/03/13 03:22:05;;;;;;;;;;;;;;;16.15;48.78;100025.34;4958130;29;1009;-38
2024/03/13 03:24:31;;;;;;;;;;;;;;;15.91;49.26;100027.22;4956908;29;994;-41
2024/03/13 03:26:57;;;;;;;;;;;;;;;15.76;49.71;100032.00;4947211;29;1050;-43
2024/03/13 03:29:22;;;;;;;;;;;;;;;15.57;49.99;100029.13;4957606;29;1901;-42
2024/03/13 03:31:49;;;;;;;;;;;;;;;16.97;47.22;100028.25;4957760;29;1133;-38
2024/03/13 03:34:14;;;;;;;;;;;;;;;17.66;45.26;100032.16;4957795;29;1148;-39
2024/03/13 03:36:40;;;;;;;;;;;;;;;16.60;47.57;100036.75;4957287;29;3109;-39
2024/03/13 03:39:10;;;;;;;;;;;;;;;16.14;48.69;100031.66;4958205;29;1096;-43
2024/03/13 03:41:39;;;;;;;;;;;;;;;15.90;49.11;100032.66;4957952;29;1105;-39
2024/03/13 03:44:04;;;;;;;;;;;;;;;15.69;49.96;100029.94;4957900;29;1038;-40
2024/03/13 03:46:30;;;;;;;;;;;;;;;16.69;48.03;100022.66;4957859;29;1230;-39
2024/03/13 03:48:55;;;;;;;;;;;;;;;17.65;45.43;100028.66;4944524;29;1141;-44
2024/03/13 03:51:21;;;;;;;;;;;;;;;16.63;47.58;100026.66;4957774;29;1918;-39
2024/03/13 03:53:46;;;;;;;;;;;;;;;16.17;48.54;100026.06;4957619;29;1172;-40
2024/03/13 03:56:14;;;;;;;;;;;;;;;15.90;49.37;100030.00;4957114;29;1145;-43
2024/03/13 03:58:42;;;;;;;;;;;;;;;15.65;49.86;100029.34;4957907;29;1217;-40
2024/03/13 04:01:08;;;;;;;;;;;;;;;16.26;48.66;100035.94;4951115;29;1260;-38
2024/03/13 04:03:37;;;;;;;;;;;;;;;17.56;45.82;100024.16;4944823;29;1117;-40
2024/03/13 04:06:03;;;;;;;;;;;;;;;17.21;46.06;100028.94;4957352;29;1165;-40
2024/03/13 04:08:28;;;;;;;;;;;;;;;16.45;48.15;100029.06;4957561;29;1121;-42
2024/03/13 04:10:54;;;;;;;;;;;;;;;16.01;49.19;100022.06;4957687;29;1989;-40
2024/03/13 04:13:21;;;;;;;;;;;;;;;15.81;49.70;100022.81;4954638;29;1077;-41
2024/03/13 04:15:47;;;;;;;;;;;;;;;15.67;49.66;100025.63;4957593;28;1029;-42
2024/03/13 04:18:13;;;;;;;;;;;;;;;17.15;46.66;100022.34;4958537;28;2719;-40
2024/03/13 04:20:38;;;;;;;;;;;;;;;17.56;45.25;100018.84;4960938;29;1069;-39
2024/03/13 04:23:07;;;;;;;;;;;;;;;16.62;47.49;100025.00;4960915;29;1079;-42
2024/03/13 04:25:35;;;;;;;;;;;;;;;16.10;48.75;100022.28;4955503;29;1081;-42
2024/03/13 04:28:00;;;;;;;;;;;;;;;15.96;49.22;100021.56;4954839;29;1208;-42
2024/03/13 04:30:26;;;;;;;;;;;;;;;15.67;49.97;100016.81;4950735;29;1906;-44
2024/03/13 04:32:51;;;;;;;;;;;;;;;16.21;49.12;100018.72;4960650;29;1045;-39
2024/03/13 04:35:19;;;;;;;;;;;;;;;17.56;45.83;100026.81;4961100;29;1204;-46
2024/03/13 04:37:45;;;;;;;;;;;;;;;16.96;46.84;100018.63;4956566;29;1195;-43
2024/03/13 04:40:10;;;;;;;;;;;;;;;16.26;48.56;100025.34;4960732;29;1097;-45
2024/03/13 04:42:36;;;;;;;;;;;;;;;15.97;48.95;100022.38;4958572;28;1023;-45
2024/03/13 04:45:02;;;;;;;;;;;;;;;15.76;49.90;100029.34;4950592;29;1061;-43
2024/03/13 04:47:29;;;;;;;;;;;;;;;15.77;50.00;100030.16;4960306;29;1193;-44
2024/03/13 04:49:54;;;;;;;;;;;;;;;17.26;46.51;100029.41;4960407;29;2826;-41
2024/03/13 04:52:21;;;;;;;;;;;;;;;17.11;46.54;100024.44;4957861;29;1070;-42
2024/03/13 04:54:47;;;;;;;;;;;;;;;16.34;48.27;100031.78;4950509;29;1159;-44
2024/03/13 04:57:13;;;;;;;;;;;;;;;16.04;48.91;100028.91;4959436;29;1102;-45
2024/03/13 04:59:38;;;;;;;;;;;;;;;15.80;49.69;100032.56;4951757;29;1212;-43
2024/03/13 05:02:04;;;;;;;;;;;;;;;15.63;49.92;100026.81;4959533;29;1116;-42
2024/03/13 05:04:29;;;;;;;;;;;;;;;16.91;47.32;100033.25;4959360;29;1522;-42
2024/03/13 05:07:01;;;;;;;;;;;;;;;17.35;45.90;100025.91;4960394;29;1006;-46
2024/03/13 05:09:30;;;;;;;;;;;;;;;16.52;47.83;100040.03;4960241;29;1977;-43
2024/03/13 05:11:56;;;;;;;;;;;;;;;17.41;46.05;100043.16;4955088;29;1265;-41
2024/03/13 05:14:22;;;;;;;;;;;;;;;16.91;46.66;100038.56;4952663;29;1105;-42
2024/03/13 05:16:47;;;;;;;;;;;;;;;16.80;48.01;100047.47;4959889;29;1144;-43
2024/03/13 05:19:13;;;;;;;;;;;;;;;18.36;44.07;100055.22;4959807;29;2878;-46
2024/03/13 05:21:38;;;;;;;;;;;;;;;16.63;46.91;100050.56;4960138;29;1069;-41
2024/03/13 05:24:05;;;;;;;;;;;;;;;16.06;47.85;100045.56;4959905;29;1034;-42
2024/03/13 05:26:33;;;;;;;;;;;;;;;17.70;45.91;100046.88;4957650;29;1214;-42
2024/03/13 05:29:01;;;;;;;;;;;;;;;16.44;47.73;100051.28;4958041;28;1472;-41
2024/03/13 05:31:26;;;;;;;;;;;;;;;15.89;47.83;100052.19;4959651;29;1931;-41
2024/03/13 05:33:52;;;;;;;;;;;;;;;17.66;46.13;100054.28;4958533;29;1157;-39
2024/03/13 05:36:17;;;;;;;;;;;;;;;16.35;47.86;100054.72;4959500;29;1232;-40
2024/03/13 05:38:43;;;;;;;;;;;;;;;17.58;46.37;100049.63;4959510;29;1044;-37
2024/03/13 05:41:08;;;;;;;;;;;;;;;17.66;45.49;100046.31;4959750;29;1056;-39
2024/03/13 05:43:34;;;;;;;;;;;;;;;16.38;47.57;100055.28;4959806;29;1029;-37
2024/03/13 05:45:59;;;;;;;;;;;;;;;17.70;46.15;100053.00;4959432;29;1147;-39
2024/03/13 05:48:25;;;;;;;;;;;;;;;16.72;47.27;100062.25;4959290;29;2424;-39
2024/03/13 05:50:50;;;;;;;;;;;;;;;16.07;47.82;100065.78;4956793;29;1983;-38
2024/03/13 05:53:16;;;;;;;;;;;;;;;17.91;45.87;100062.72;4959074;29;1271;-39
2024/03/13 05:55:42;;;;;;;;;;;;;;;17.01;47.09;100063.38;4941910;29;1080;-38
2024/03/13 05:58:09;;;;;;;;;;;;;;;17.18;47.54;100067.28;4958940;29;1338;-40
2024/03/13 06:00:34;;;;;;;;;;;;;;;18.35;44.46;100070.34;4959211;29;1131;-43
2024/03/13 06:03:00;;;;;;;;;;;;;;;16.84;47.02;100075.44;4951610;29;1367;-43
2024/03/13 06:05:26;;;;;;;;;;;;;;;16.35;47.45;100074.13;4959743;29;1070;-39
2024/03/13 06:07:56;;;;;;;;;;;;;;;17.90;45.51;100071.66;4948011;29;1205;-37
2024/03/13 06:10:22;;;;;;;;;;;;;;;16.58;47.66;100073.19;4958893;29;1967;-39
2024/03/13 06:12:47;;;;;;;;;;;;;;;16.22;47.30;100071.66;4959221;29;1395;-40
2024/03/13 06:15:14;;;;;;;;;;;;;;;17.57;46.07;100071.88;4958945;29;1181;-39
2024/03/13 06:17:40;;;;;;;;;;;;;;;16.47;47.73;100076.72;4946747;29;2441;-39
2024/03/13 06:20:13;;;;;;;;;;;;;;;16.27;47.03;100076.56;4958531;29;1421;-41
2024/03/13 06:22:40;;;;;;;;;;;;;;;17.38;46.72;100067.38;4959085;29;1205;-44
2024/03/13 06:25:06;;;;;;;;;;;;;;;16.31;47.80;100075.38;4958976;29;1101;-43
2024/03/13 06:27:35;;;;;;;;;;;;;;;18.25;45.31;100080.13;4958155;29;1138;-42
2024/03/13 06:30:05;;;;;;;;;;;;;;;17.16;46.79;100071.88;4958430;29;1902;-38
2024/03/13 06:32:30;;;;;;;;;;;;;;;16.89;48.35;100078.56;4958528;29;1021;-41
2024/03/13 06:34:56;;;;;;;;;;;;;;;18.21;44.81;100070.75;4959163;29;1038;-38
2024/03/13 06:37:25;;;;;;;;;;;;;;;16.88;47.09;100072.41;4958205;29;1193;-43
2024/03/13 06:39:51;;;;;;;;;;;;;;;16.52;46.87;100078.03;4958657;28;906;-41
2024/03/13 06:42:17;;;;;;;;;;;;;;;17.30;47.64;100068.00;4958053;29;1061;-41
2024/03/13 06:44:43;;;;;;;;;;;;;;;16.74;47.56;100072.72;4958343;29;1033;-37
2024/03/13 06:47:11;;;;;;;;;;;;;;;16.25;47.72;100068.75;4958297;29;1050;-41
2024/03/13 06:49:45;;;;;;;;;;;;;;;17.07;47.53;100072.63;4958424;29;2768;-39
2024/03/13 06:52:13;;;;;;;;;;;;;;;16.63;48.81;100073.66;4957899;29;869;-44
2024/03/13 06:54:39;;;;;;;;;;;;;;;18.59;44.57;100077.06;4957701;29;1025;-42
2024/03/13 06:57:06;;;;;;;;;;;;;;;17.50;46.21;100078.72;4957670;29;1189;-43
2024/03/13 06:59:32;;;;;;;;;;;;;;;16.68;47.25;100075.91;4958485;29;1081;-41
2024/03/13 07:02:00;;;;;;;;;;;;;;;16.35;47.05;100079.44;4958015;29;1058;-42
2024/03/13 07:04:25;;;;;;;;;;;;;;;17.68;46.54;100076.28;4947839;28;972;-40
2024/03/13 07:06:57;;;;;;;;;;;;;;;16.56;47.65;100085.75;4955635;29;1177;-45
2024/03/13 07:09:26;;;;;;;;;;;;;;;16.23;47.55;100086.59;4958089;29;1898;-39
2024/03/13 07:11:51;;;;;;;;;;;;;;;18.24;45.91;100091.78;4958336;29;1034;-38
2024/03/13 07:14:17;;;;;;;;;;;;;;;16.95;47.53;100088.66;4948948;29;1212;-42
2024/03/13 07:16:43;;;;;;;;;;;;;;;16.50;47.30;100089.75;4950271;29;1096;-38
2024/03/13 07:19:09;;;;;;;;;;;;;;;18.02;46.28;100090.19;4957610;28;2521;-39
2024/03/13 07:21:35;;;;;;;;;;;;;;;16.96;47.50;100100.13;4957759;29;1025;-38
2024/03/13 07:24:01;;;;;;;;;;;;;;;16.44;48.22;100095.56;4957867;29;1077;-41
2024/03/13 07:26:26;;;;;;;;;;;;;;;17.81;46.33;100094.63;4946326;29;1137;-39
2024/03/13 07:28:53;;;;;;;;;;;;;;;16.64;47.87;100099.22;4956021;29;1460;-39
2024/03/13 07:31:20;;;;;;;;;;;;;;;16.33;47.67;100096.47;4958096;29;1911;-37
2024/03/13 07:33:46;;;;;;;;;;;;;;;17.08;48.18;100090.28;4958247;29;1010;-39
2024/03/13 07:36:12;;;;;;;;;;;;;;;17.41;46.92;100091.00;4958274;29;1089;-41
2024/03/13 07:38:37;;;;;;;;;;;;;;;16.54;47.96;100096.50;4957637;29;1085;-43
2024/03/13 07:41:09;;;;;;;;;;;;;;;17.11;48.39;100093.53;4952506;29;1312;-38
2024/03/13 07:43:34;;;;;;;;;;;;;;;17.32;46.84;100097.13;4951323;29;1169;-40
2024/03/13 07:46:00;;;;;;;;;;;;;;;16.65;47.75;100096.44;4951271;29;1193;-38
2024/03/13 07:48:26;;;;;;;;;;;;;;;17.20;48.37;100091.06;4957689;29;2561;-38
2024/03/13 07:50:52;;;;;;;;;;;;;;;16.99;47.63;100098.06;4954505;29;1985;-43
2024/03/13 07:53:21;;;;;;;;;;;;;;;16.38;47.57;100095.09;4954356;28;947;-42
2024/03/13 07:55:49;;;;;;;;;;;;;;;16.19;46.99;100103.75;4949734;29;1055;-40
2024/03/13 07:58:15;;;;;;;;;;;;;;;17.75;47.03;100106.66;4953739;29;1316;-40
2024/03/13 08:00:41;;;;;;;;;;;;;;;16.88;48.02;100096.31;4961244;29;1129;-41
2024/03/13 08:03:07;;;;;;;;;;;;;;;16.36;48.00;100096.22;4961145;29;1303;-42
2024/03/13 08:05:33;;;;;;;;;;;;;;;18.07;46.08;100093.25;4961103;29;1077;-47
2024/03/13 08:07:58;;;;;;;;;;;;;;;16.80;47.58;100096.13;4961165;29;1448;-40
2024/03/13 08:10:28;;;;;;;;;;;;;;;16.40;47.20;100098.47;4960938;29;1922;-40
2024/03/13 08:12:54;;;;;;;;;;;;;;;17.44;47.80;100096.06;4961192;29;1120;-41
2024/03/13 08:15:20;;;;;;;;;;;;;;;16.83;47.91;100089.72;4957785;29;1268;-40
2024/03/13 08:17:45;;;;;;;;;;;;;;;16.24;47.94;100096.25;4952927;29;2581;-39
2024/03/13 08:20:14;;;;;;;;;;;;;;;17.67;47.39;100095.84;4956817;29;1241;-44
2024/03/13 08:22:43;;;;;;;;;;;;;;;16.74;48.04;100097.50;4961034;29;1092;-41
2024/03/13 08:25:09;;;;;;;;;;;;;;;16.27;47.99;100087.19;4961046;29;1153;-43
2024/03/13 08:27:34;;;;;;;;;;;;;;;17.23;48.17;100094.28;4960634;29;1030;-42
2024/03/13 08:30:00;;;;;;;;;;;;;;;16.63;48.08;100101.03;4947854;29;1981;-40
2024/03/13 08:32:25;;;;;;;;;;;;;;;17.86;46.99;100097.75;4961114;29;1057;-38
2024/03/13 08:34:51;;;;;;;;;;;;;;;18.26;45.29;100095.16;4960615;29;1045;-41
2024/03/13 08:37:17;;;;;;;;;;;;;;;16.94;47.46;100099.41;4960804;29;1030;-43
2024/03/13 08:39:42;;;;;;;;;;;;;;;16.54;47.42;100096.50;4956305;29;1078;-40
2024/03/13 08:42:08;;;;;;;;;;;;;;;16.97;48.51;100100.00;4961305;29;1094;-42
2024/03/13 08:44:33;;;;;;;;;;;;;;;17.54;46.85;100095.25;4960654;29;1077;-42
2024/03/13 08:46:59;;;;;;;;;;;;;;;16.70;47.63;100105.84;4960700;29;1145;-41
2024/03/13 08:49:24;;;;;;;;;;;;;;;16.32;47.57;100095.63;4960897;29;2410;-44
2024/03/13 08:51:51;;;;;;;;;;;;;;;17.11;48.08;100098.88;4953260;29;1232;-41
2024/03/13 08:54:17;;;;;;;;;;;;;;;16.67;48.10;100098.13;4958883;29;1035;-40
2024/03/13 08:56:42;;;;;;;;;;;;;;;16.81;48.59;100092.50;4947896;29;1216;-38
2024/03/13 08:59:08;;;;;;;;;;;;;;;17.97;46.19;100090.59;4953805;29;1144;-42
2024/03/13 09:01:42;;;;;;;;;;;;;;;16.74;47.88;100091.31;4937449;29;1186;-40
2024/03/13 09:04:09;;;;;;;;;;;;;;;16.32;47.88;100094.78;4959092;28;1160;-39
2024/03/13 09:06:36;;;;;;;;;;;;;;;17.33;47.44;100090.84;4960294;29;1049;-44
2024/03/13 09:09:03;;;;;;;;;;;;;;;16.39;47.95;100090.66;4960164;29;1057;-39
2024/03/13 09:11:33;;;;;;;;;;;;;;;16.14;47.04;100100.63;4960769;29;1975;-38
2024/03/13 09:14:03;;;;;;;;;;;;;;;17.31;47.60;100093.63;4960394;29;1220;-42
2024/03/13 09:16:29;;;;;;;;;;;;;;;16.35;48.15;100094.53;4958069;29;1319;-37
2024/03/13 09:18:54;;;;;;;;;;;;;;;16.90;48.50;100096.16;4960085;29;2538;-39
2024/03/13 09:21:20;;;;;;;;;;;;;;;17.04;47.86;100099.47;4960145;29;1276;-41
2024/03/13 09:23:46;;;;;;;;;;;;;;;16.43;48.96;100105.38;4960190;29;1062;-40
2024/03/13 09:26:12;;;;;;;;;;;;;;;18.38;45.77;100101.19;4959265;29;1280;-38
2024/03/13 09:28:37;;;;;;;;;;;;;;;16.85;48.00;100103.72;4957005;29;1055;-39
2024/03/13 09:31:03;;;;;;;;;;;;;;;16.58;47.53;100103.22;4959567;29;1980;-38
2024/03/13 09:33:29;;;;;;;;;;;;;;;17.24;48.03;100098.66;4959802;29;1370;-38
2024/03/13 09:35:56;;;;;;;;;;;;;;;16.37;48.46;100108.50;4959887;29;1295;-37
2024/03/13 09:38:22;;;;;;;;;;;;;;;17.70;47.70;100106.22;4959095;29;1588;-40
2024/03/13 09:40:48;;;;;;;;;;;;;;;17.05;47.71;100107.31;4959258;29;1362;-41
2024/03/13 09:43:14;;;;;;;;;;;;;;;16.43;48.07;100104.53;4959867;29;1248;-38
2024/03/13 09:45:40;;;;;;;;;;;;;;;16.90;48.73;100112.09;4959642;29;1264;-43
2024/03/13 09:48:05;;;;;;;;;;;;;;;16.91;47.87;100118.28;4959460;29;2410;-40
2024/03/13 09:50:31;;;;;;;;;;;;;;;16.34;47.78;100114.06;4958841;29;1898;-39
2024/03/13 09:52:57;;;;;;;;;;;;;;;17.70;47.14;100119.53;4941838;29;1332;-41
2024/03/13 09:55:22;;;;;;;;;;;;;;;16.64;48.04;100123.97;4959364;29;1431;-41
2024/03/13 09:57:48;;;;;;;;;;;;;;;16.26;47.69;100122.69;4958354;29;1367;-40
2024/03/13 10:00:14;;;;;;;;;;;;;;;16.84;48.21;100124.13;4959044;29;1292;-43
2024/03/13 10:02:41;;;;;;;;;;;;;;;16.22;48.10;100123.88;4959078;29;1572;-46
2024/03/13 10:05:11;;;;;;;;;;;;;;;18.11;46.69;100124.81;4949021;29;1260;-43
2024/03/13 10:07:36;;;;;;;;;;;;;;;16.99;47.88;100123.78;4959047;29;1124;-42
2024/03/13 10:10:03;;;;;;;;;;;;;;;16.48;47.72;100127.03;4946228;28;1903;-40
2024/03/13 10:12:28;;;;;;;;;;;;;;;17.20;47.79;100131.75;4942243;29;1113;-39
2024/03/13 10:14:54;;;;;;;;;;;;;;;16.44;48.04;100130.09;4958243;28;1203;-39
2024/03/13 10:17:21;;;;;;;;;;;;;;;17.14;48.87;100132.28;4949706;29;939;-39
2024/03/13 10:19:47;;;;;;;;;;;;;;;16.97;47.89;100129.22;4946397;29;2679;-42
2024/03/13 10:22:14;;;;;;;;;;;;;;;16.43;47.83;100128.41;4949300;29;1320;-39
2024/03/13 10:24:41;;;;;;;;;;;;;;;16.70;49.10;100133.22;4958540;29;1334;-39
2024/03/13 10:27:07;;;;;;;;;;;;;;;16.82;47.98;100123.41;4959016;29;1146;-41
2024/03/13 10:29:33;;;;;;;;;;;;;;;16.66;49.24;100129.16;4958299;28;1908;-40
2024/03/13 10:31:59;;;;;;;;;;;;;;;18.34;45.83;100123.72;4959436;29;1350;-43
2024/03/13 10:34:25;;;;;;;;;;;;;;;16.87;47.90;100131.81;4957995;29;1171;-42
2024/03/13 10:36:56;;;;;;;;;;;;;;;18.05;46.95;100129.84;5108608;27;1485;-42
2024/03/13 10:39:21;;;;;;;;;;;;;;;17.55;46.89;100121.69;5072661;28;1373;-39
2024/03/13 10:41:49;;;;;;;;;;;;;;;16.86;47.83;100129.28;5071854;28;1221;-44
2024/03/13 10:44:14;;;;;;;;;;;;;;;16.48;47.17;100127.03;5063961;28;1047;-43
2024/03/13 10:46:41;;;;;;;;;;;;;;;16.26;46.65;100127.97;5073838;28;1114;-43
2024/03/13 10:49:07;;;;;;;;;;;;;;;17.42;47.41;100113.97;5072846;28;2814;-41
2024/03/13 10:51:33;;;;;;;;;;;;;;;16.47;48.09;100117.41;5072068;28;1330;-44
2024/03/13 10:54:03;;;;;;;;;;;;;;;17.25;48.21;100116.25;5078079;28;1243;-43
2024/03/13 10:56:29;;;;;;;;;;;;;;;17.15;47.77;100112.72;5069850;28;1989;-43
2024/03/13 10:58:55;;;;;;;;;;;;;;;16.48;47.94;100112.94;5072795;28;1066;-44
2024/03/13 11:01:21;;;;;;;;;;;;;;;16.39;48.76;100119.84;5063744;28;1046;-42
2024/03/13 11:03:55;;;;;;;;;;;;;;;18.18;46.67;100110.97;5067607;28;1331;-42
2024/03/13 11:06:21;;;;;;;;;;;;;;;16.82;48.31;100111.91;5079240;28;895;-43
2024/03/13 11:08:46;;;;;;;;;;;;;;;16.47;47.71;100106.78;5072582;28;1125;-40
2024/03/13 11:11:12;;;;;;;;;;;;;;;17.74;47.26;100107.66;5073003;28;1035;-41
2024/03/13 11:13:39;;;;;;;;;;;;;;;16.61;48.25;100102.16;5072593;28;1090;-43
2024/03/13 11:16:06;;;;;;;;;;;;;;;16.76;48.85;100106.19;5073389;28;1956;-44
2024/03/13 11:18:32;;;;;;;;;;;;;;;17.35;47.71;100103.00;5071372;28;2525;-43
2024/03/13 11:21:02;;;;;;;;;;;;;;;16.56;47.95;100104.34;5071558;28;1091;-41
2024/03/13 11:23:29;;;;;;;;;;;;;;;16.23;47.20;100101.69;5071258;28;1222;-44
2024/03/13 11:26:03;;;;;;;;;;;;;;;17.92;47.64;100092.81;5072375;28;1083;-45
2024/03/13 11:28:29;;;;;;;;;;;;;;;16.64;48.36;100096.56;5072193;28;1154;-44
2024/03/13 11:30:56;;;;;;;;;;;;;;;16.28;47.68;100097.69;5072280;28;1106;-42
2024/03/13 11:33:24;;;;;;;;;;;;;;;16.13;47.18;100097.13;5072017;28;1063;-43
2024/03/13 11:35:49;;;;;;;;;;;;;;;17.54;48.12;100089.94;5071644;28;1902;-42
2024/03/13 11:38:15;;;;;;;;;;;;;;;17.21;48.00;100085.63;5070833;28;1186;-44
2024/03/13 11:40:41;;;;;;;;;;;;;;;16.41;48.43;100083.41;5070886;28;1128;-41
2024/03/13 11:43:09;;;;;;;;;;;;;;;16.17;47.75;100084.47;5072313;28;1046;-42
2024/03/13 11:45:43;;;;;;;;;;;;;;;17.53;47.57;100085.59;5072076;28;1078;-45
2024/03/13 11:48:12;;;;;;;;;;;;;;;16.46;48.41;100083.03;5059773;28;2558;-43
2024/03/13 11:50:50;;;;;;;;;;;;;;;16.28;48.69;100087.06;5058655;28;1493;-41
2024/03/13 11:53:18;;;;;;;;;;;;;;;17.22;47.88;100089.09;5060190;28;1396;-41
2024/03/13 11:55:46;;;;;;;;;;;;;;;16.41;48.17;100088.72;5063716;28;1922;-42
2024/03/13 11:58:18;;;;;;;;;;;;;;;17.10;48.84;100083.88;5058199;28;979;-45
2024/03/13 12:00:44;;;;;;;;;;;;;;;16.98;48.16;100091.03;5059103;28;1135;-42
2024/03/13 12:03:11;;;;;;;;;;;;;;;16.50;47.83;100090.59;5058424;28;1075;-44
2024/03/13 12:05:37;;;;;;;;;;;;;;;17.17;48.66;100086.84;5063920;28;1460;-40
2024/03/13 12:08:03;;;;;;;;;;;;;;;17.00;48.27;100091.75;5063403;28;1042;-42
2024/03/13 12:10:29;;;;;;;;;;;;;;;16.32;48.04;100089.47;5058169;28;1117;-45
2024/03/13 12:12:55;;;;;;;;;;;;;;;17.27;48.94;100081.56;5050640;28;1349;-40
2024/03/13 12:15:21;;;;;;;;;;;;;;;16.91;48.32;100092.56;5058199;28;1996;-46
2024/03/13 12:17:50;;;;;;;;;;;;;;;16.40;48.30;100092.31;5061651;28;2535;-41
2024/03/13 12:20:18;;;;;;;;;;;;;;;17.54;48.49;100090.78;5067600;28;1154;-40
2024/03/13 12:22:47;;;;;;;;;;;;;;;16.58;48.61;100097.09;5058183;28;1085;-43
2024/03/13 12:25:13;;;;;;;;;;;;;;;16.27;47.66;100089.84;5057112;28;1054;-41
2024/03/13 12:27:47;;;;;;;;;;;;;;;17.82;47.67;100090.13;5058394;28;1194;-43
2024/03/13 12:30:14;;;;;;;;;;;;;;;17.00;48.25;100091.75;5058307;28;1383;-43
2024/03/13 12:32:40;;;;;;;;;;;;;;;16.57;47.53;100090.06;5064897;28;1025;-44
2024/03/13 12:35:06;;;;;;;;;;;;;;;16.20;47.06;100084.19;5057665;28;1993;-43
2024/03/13 12:37:32;;;;;;;;;;;;;;;17.62;48.14;100082.13;5057164;28;1008;-42
2024/03/13 12:39:58;;;;;;;;;;;;;;;16.70;48.39;100079.28;5058117;28;1139;-41
2024/03/13 12:42:25;;;;;;;;;;;;;;;16.32;48.02;100077.03;5062523;28;1204;-45
2024/03/13 12:44:51;;;;;;;;;;;;;;;17.71;47.95;100072.50;5040893;28;1160;-43
2024/03/13 12:47:16;;;;;;;;;;;;;;;16.56;48.26;100085.75;5053125;28;1136;-43
2024/03/13 12:49:42;;;;;;;;;;;;;;;16.18;47.89;100085.31;5059508;28;2889;-43
2024/03/13 12:52:09;;;;;;;;;;;;;;;17.48;48.21;100078.84;5057572;28;1118;-42
2024/03/13 12:54:35;;;;;;;;;;;;;;;17.27;47.65;100083.41;5057760;28;1906;-45
2024/03/13 12:57:04;;;;;;;;;;;;;;;16.42;48.36;100082.44;5063647;28;1269;-41
2024/03/13 12:59:30;;;;;;;;;;;;;;;16.20;47.00;100084.19;5055206;28;1044;-39
2024/03/13 13:01:57;;;;;;;;;;;;;;;16.91;48.27;100081.09;5063132;28;1180;-40
2024/03/13 13:04:22;;;;;;;;;;;;;;;16.28;47.86;100087.06;5052923;28;1012;-42